Time;durP1;ratioP1;P1;durP2;ratioP2;P2;SDS_P1;SDS_P2;PMS_P1;PMS_P2;Temp;Humidity;BMP_temperature;BMP_pressure;BME280_temperature;BME280_humidity;BME280_pressure;Samples;Min_cycle;Max_cycle;Signal;HPM_P1;HPM_P2
2023/04/20 00:00:20;;;;;;;11.73;7.65;;;;;;;10.45;100.00;100467.94;4851122;29;20042;-75
2023/04/20 00:02:46;;;;;;;8.27;6.75;;;;;;;10.42;100.00;100462.97;4847614;29;20512;-75
2023/04/20 00:05:11;;;;;;;9.27;6.45;;;;;;;10.38;100.00;100459.09;4831927;29;20046;-74
2023/04/20 00:07:37;;;;;;;10.20;7.15;;;;;;;10.36;100.00;100466.06;4832157;29;20563;-75
2023/04/20 00:10:03;;;;;;;11.35;7.70;;;;;;;10.32;100.00;100460.28;4832056;29;20634;-75
2023/04/20 00:12:29;;;;;;;8.57;6.63;;;;;;;10.22;100.00;100454.78;4847477;29;20042;-75
2023/04/20 00:14:54;;;;;;;10.80;7.90;;;;;;;10.20;100.00;100454.28;4847220;29;20042;-74
2023/04/20 00:17:20;;;;;;;9.15;7.10;;;;;;;10.13;100.00;100442.69;4847320;29;20034;-75
2023/04/20 00:19:46;;;;;;;10.18;6.95;;;;;;;10.14;100.00;100450.72;4816618;29;20038;-75
2023/04/20 00:22:11;;;;;;;7.93;6.22;;;;;;;10.13;100.00;100445.47;4847242;29;20042;-74
2023/04/20 00:24:37;;;;;;;9.13;7.07;;;;;;;10.15;100.00;100443.22;4848361;29;20464;-75
2023/04/20 00:27:02;;;;;;;9.45;6.93;;;;;;;10.13;100.00;100445.47;4831738;29;20038;-74
2023/04/20 00:29:28;;;;;;;11.27;7.38;;;;;;;10.04;100.00;100443.31;4816626;29;20073;-74
2023/04/20 00:31:53;;;;;;;11.02;7.10;;;;;;;10.01;100.00;100435.59;4813628;29;20043;-75
2023/04/20 00:34:19;;;;;;;9.27;6.88;;;;;;;9.98;100.00;100435.34;4846754;29;20098;-75
2023/04/20 00:36:45;;;;;;;8.93;6.68;;;;;;;9.95;100.00;100435.94;4846676;29;20038;-74
2023/04/20 00:39:10;;;;;;;11.50;7.80;;;;;;;9.87;100.00;100440.16;4829962;29;20041;-74
2023/04/20 00:41:36;;;;;;;10.50;7.13;;;;;;;9.88;100.00;100433.47;4813351;29;20035;-74
2023/04/20 00:44:01;;;;;;;8.88;6.22;;;;;;;9.85;100.00;100434.06;4820699;29;20534;-74
2023/04/20 00:46:27;;;;;;;8.82;6.78;;;;;;;9.81;100.00;100422.72;4813437;29;20091;-74
2023/04/20 00:48:53;;;;;;;7.57;6.18;;;;;;;9.78;100.00;100414.19;4848933;29;20041;-74
2023/04/20 00:51:19;;;;;;;7.97;6.13;;;;;;;9.78;100.00;100414.19;4828379;29;20074;-75
2023/04/20 00:53:45;;;;;;;10.75;7.18;;;;;;;9.66;100.00;100414.53;4813381;29;20047;-74
2023/04/20 00:56:11;;;;;;;9.57;5.97;;;;;;;9.67;100.00;100409.81;4813282;29;20050;-75
2023/04/20 00:58:37;;;;;;;7.32;5.88;;;;;;;9.63;100.00;100407.63;4828179;29;20042;-74
2023/04/20 01:01:04;;;;;;;10.05;6.78;;;;;;;9.65;100.00;100409.28;4819392;29;20050;-74
2023/04/20 01:03:29;;;;;;;10.15;6.78;;;;;;;9.58;100.00;100407.69;4812342;29;20038;-75
2023/04/20 01:05:55;;;;;;;7.63;5.47;;;;;;;9.57;100.00;100402.41;4828080;29;20050;-74
2023/04/20 01:08:25;;;;;;;8.65;6.22;;;;;;;9.55;100.00;100404.66;4813001;29;20034;-74
2023/04/20 01:10:50;;;;;;;8.60;6.20;;;;;;;9.50;100.00;100393.59;4813132;29;20045;-74
2023/04/20 01:13:15;;;;;;;8.60;6.47;;;;;;;9.46;100.00;100398.91;4812896;29;20050;-74
2023/04/20 01:15:41;;;;;;;9.35;6.35;;;;;;;9.42;100.00;100396.97;4812891;29;20046;-74
2023/04/20 01:18:08;;;;;;;9.18;6.70;;;;;;;9.35;100.00;100392.59;4827795;29;20050;-74
2023/04/20 01:20:33;;;;;;;9.38;6.93;;;;;;;9.31;100.00;100396.25;4803775;29;20053;-74
2023/04/20 01:22:59;;;;;;;8.77;6.05;;;;;;;9.26;100.00;100385.22;4846201;29;20041;-74
2023/04/20 01:25:24;;;;;;;11.65;6.57;;;;;;;9.21;100.00;100382.47;4838310;29;20050;-74
2023/04/20 01:27:50;;;;;;;9.80;6.25;;;;;;;9.17;100.00;100393.31;4818387;29;20049;-74
2023/04/20 01:30:16;;;;;;;9.85;7.07;;;;;;;9.13;100.00;100387.50;4827717;29;20049;-74
2023/04/20 01:32:41;;;;;;;9.52;6.47;;;;;;;9.11;100.00;100381.44;4829009;29;20069;-74
2023/04/20 01:35:07;;;;;;;9.18;6.03;;;;;;;9.07;100.00;100383.09;4806469;29;20571;-75
2023/04/20 01:37:33;;;;;;;8.70;6.57;;;;;;;9.05;100.00;100385.31;4845659;29;20050;-75
2023/04/20 01:39:58;;;;;;;8.98;6.70;;;;;;;8.96;100.00;100387.06;4845850;29;20046;-74
2023/04/20 01:42:24;;;;;;;10.18;6.97;;;;;;;8.89;100.00;100379.06;4833033;29;20053;-74
2023/04/20 01:44:49;;;;;;;8.15;6.40;;;;;;;8.88;100.00;100382.94;4834818;29;20046;-74
2023/04/20 01:47:15;;;;;;;9.60;7.00;;;;;;;8.87;100.00;100377.69;4828610;29;20065;-74
2023/04/20 01:49:40;;;;;;;9.57;6.50;;;;;;;8.90;100.00;100377.13;4847444;29;20091;-74
2023/04/20 01:52:06;;;;;;;9.82;6.95;;;;;;;8.83;100.00;100373.84;4827181;29;20038;-74
2023/04/20 01:54:31;;;;;;;11.23;7.45;;;;;;;8.79;100.00;100381.06;4812077;29;20187;-74
2023/04/20 01:56:57;;;;;;;8.63;6.40;;;;;;;8.81;100.00;100378.84;4827259;29;20050;-74
2023/04/20 01:59:22;;;;;;;11.45;7.32;;;;;;;8.80;100.00;100377.19;4812207;29;20042;-74
2023/04/20 02:01:48;;;;;;;8.85;6.18;;;;;;;8.79;100.00;100378.31;4827129;29;20400;-74
2023/04/20 02:04:13;;;;;;;10.75;7.13;;;;;;;8.71;100.00;100379.72;4827183;29;20491;-74
2023/04/20 02:06:39;;;;;;;13.35;7.43;;;;;;;8.76;100.00;100385.22;4811923;29;20054;-74
2023/04/20 02:09:05;;;;;;;12.95;7.85;;;;;;;8.72;100.00;100373.91;4827100;29;20497;-74
2023/04/20 02:11:30;;;;;;;11.93;7.82;;;;;;;8.72;100.00;100381.38;4811890;29;20432;-74
2023/04/20 02:13:56;;;;;;;13.45;8.50;;;;;;;8.63;100.00;100372.00;4828011;29;20046;-75
2023/04/20 02:16:22;;;;;;;11.98;8.27;;;;;;;8.60;100.00;100381.69;4826877;29;20039;-74
2023/04/20 02:18:48;;;;;;;13.27;9.10;;;;;;;8.49;100.00;100377.31;4811700;29;20530;-74
2023/04/20 02:21:13;;;;;;;12.07;8.38;;;;;;;8.52;100.00;100373.16;4826847;29;20042;-74
2023/04/20 02:23:39;;;;;;;14.50;9.02;;;;;;;8.48;100.00;100375.69;4826988;29;20051;-74
2023/04/20 02:26:04;;;;;;;13.02;9.25;;;;;;;8.50;100.00;100379.81;4831220;29;20033;-74
2023/04/20 02:28:30;;;;;;;10.15;7.72;;;;;;;8.51;100.00;100380.66;4826923;29;20407;-75
2023/04/20 02:30:55;;;;;;;10.77;8.00;;;;;;;8.51;100.00;100380.66;4796409;29;20051;-74
2023/04/20 02:33:21;;;;;;;13.75;7.85;;;;;;;8.48;100.00;100381.22;4811546;29;20047;-74
2023/04/20 02:35:46;;;;;;;9.90;7.75;;;;;;;8.52;100.00;100381.47;4830071;29;20062;-74
2023/04/20 02:38:12;;;;;;;11.57;9.05;;;;;;;8.50;100.00;100381.78;4814868;29;20048;-75
2023/04/20 02:40:37;;;;;;;11.90;8.18;;;;;;;8.47;100.00;100382.34;4814587;29;20462;-74
2023/04/20 02:43:03;;;;;;;13.38;9.57;;;;;;;8.42;100.00;100383.19;4838281;29;20049;-74
2023/04/20 02:45:29;;;;;;;16.80;10.32;;;;;;;8.41;100.00;100388.97;4834109;29;20053;-74
2023/04/20 02:47:56;;;;;;;15.15;10.43;;;;;;;8.36;100.00;100384.28;4836346;29;20037;-74
2023/04/20 02:50:21;;;;;;;16.30;11.13;;;;;;;8.28;100.00;100394.00;4850140;29;20089;-74
2023/04/20 02:52:47;;;;;;;12.88;8.88;;;;;;;8.29;100.00;100395.63;4838363;29;20046;-74
2023/04/20 02:55:12;;;;;;;15.30;9.90;;;;;;;8.31;100.00;100387.06;4826518;29;20049;-74
2023/04/20 02:57:37;;;;;;;17.08;11.02;;;;;;;8.28;100.00;100394.00;4826378;29;20042;-74
2023/04/20 03:00:03;;;;;;;13.65;10.02;;;;;;;8.25;100.00;100389.03;4822218;29;20042;-75
2023/04/20 03:02:29;;;;;;;14.05;10.15;;;;;;;8.26;100.00;100393.44;4826387;29;20483;-75
2023/04/20 03:04:54;;;;;;;16.02;11.48;;;;;;;8.22;100.00;100395.13;4838689;29;20518;-75
2023/04/20 03:07:20;;;;;;;20.90;10.93;;;;;;;8.23;100.00;100402.28;4839093;29;20046;-75
2023/04/20 03:09:45;;;;;;;15.88;11.73;;;;;;;8.16;100.00;100390.72;4826263;29;20042;-75
2023/04/20 03:12:11;;;;;;;18.60;12.80;;;;;;;8.15;100.00;100389.03;4826404;29;20043;-75
2023/04/20 03:14:36;;;;;;;18.48;11.95;;;;;;;8.09;100.00;100389.34;4820800;29;20038;-76
2023/04/20 03:17:02;;;;;;;19.20;12.82;;;;;;;8.09;100.00;100387.41;4811110;29;20519;-75
2023/04/20 03:19:27;;;;;;;22.33;13.73;;;;;;;8.01;100.00;100388.78;4825981;29;20057;-75
2023/04/20 03:21:52;;;;;;;22.00;14.07;;;;;;;7.99;100.00;100384.66;4810968;29;20052;-75
2023/04/20 03:24:18;;;;;;;23.23;14.43;;;;;;;7.95;100.00;100386.34;4820279;29;20051;-75
2023/04/20 03:26:43;;;;;;;19.17;13.57;;;;;;;7.92;100.00;100384.13;4838302;29;20046;-75
2023/04/20 03:29:09;;;;;;;18.73;12.30;;;;;;;7.91;100.00;100377.78;4800937;29;20576;-75
2023/04/20 03:31:34;;;;;;;20.80;12.38;;;;;;;7.93;100.00;100381.06;4827214;29;20033;-75
2023/04/20 03:34:00;;;;;;;17.77;13.00;;;;;;;7.88;100.00;100388.53;4820747;29;20099;-75
2023/04/20 03:36:27;;;;;;;18.45;11.38;;;;;;;7.90;100.00;100389.91;4807310;29;20037;-75
2023/04/20 03:38:52;;;;;;;22.08;13.20;;;;;;;7.87;100.00;100386.91;4832503;29;20053;-76
2023/04/20 03:41:18;;;;;;;20.40;13.98;;;;;;;7.86;100.00;100385.25;4844046;29;20103;-75
2023/04/20 03:43:43;;;;;;;16.48;12.18;;;;;;;7.82;100.00;100382.19;4850414;29;20060;-75
2023/04/20 03:46:09;;;;;;;22.85;12.63;;;;;;;7.81;100.00;100386.91;4832329;29;20041;-75
2023/04/20 03:48:34;;;;;;;19.30;12.60;;;;;;;7.80;100.00;100387.16;4856811;29;20101;-75
2023/04/20 03:51:00;;;;;;;17.65;12.00;;;;;;;7.75;100.00;100378.91;4816901;29;20041;-75
2023/04/20 03:53:27;;;;;;;17.60;12.30;;;;;;;7.70;100.00;100379.72;4847053;29;20052;-75
2023/04/20 03:55:53;;;;;;;21.52;12.80;;;;;;;7.66;100.00;100383.31;4832186;29;20045;-75
2023/04/20 03:58:19;;;;;;;21.23;13.13;;;;;;;7.67;100.00;100379.47;4816547;29;20173;-75
2023/04/20 04:00:45;;;;;;;21.90;12.80;;;;;;;7.61;100.00;100375.88;4828907;29;20518;-75
2023/04/20 04:03:10;;;;;;;16.50;12.13;;;;;;;7.55;100.00;100379.72;4831644;29;20193;-75
2023/04/20 04:05:36;;;;;;;17.80;12.40;;;;;;;7.51;100.00;100370.34;4843987;29;20048;-75
2023/04/20 04:08:01;;;;;;;20.73;12.93;;;;;;;7.47;100.00;100372.84;4831895;29;20045;-75
2023/04/20 04:10:27;;;;;;;19.45;12.35;;;;;;;7.43;100.00;100376.44;4828837;29;20042;-75
2023/04/20 04:12:52;;;;;;;16.40;11.23;;;;;;;7.46;100.00;100371.16;4828784;29;20070;-75
2023/04/20 04:15:18;;;;;;;16.13;11.30;;;;;;;7.48;100.00;100371.72;4834724;29;20037;-75
2023/04/20 04:17:43;;;;;;;17.23;10.27;;;;;;;7.51;100.00;100364.81;4846959;29;20042;-75
2023/04/20 04:20:10;;;;;;;15.70;10.70;;;;;;;7.50;100.00;100363.16;4828362;29;20071;-74
2023/04/20 04:22:35;;;;;;;18.23;11.07;;;;;;;7.49;100.00;100365.09;4843829;29;20129;-75
2023/04/20 04:25:01;;;;;;;12.90;9.35;;;;;;;7.49;100.00;100369.78;4828680;29;20038;-75
2023/04/20 04:27:28;;;;;;;16.25;10.70;;;;;;;7.46;100.00;100364.81;4846262;29;20182;-76
2023/04/20 04:29:55;;;;;;;13.50;9.88;;;;;;;7.42;100.00;100367.31;4817067;29;20046;-75
2023/04/20 04:32:23;;;;;;;19.92;11.48;;;;;;;7.31;100.00;100369.25;4846198;29;20501;-75
2023/04/20 04:34:49;;;;;;;15.50;10.68;;;;;;;7.29;100.00;100365.09;4828693;29;20042;-76
2023/04/20 04:37:14;;;;;;;15.90;10.25;;;;;;;7.20;100.00;100362.06;4849043;29;20525;-75
2023/04/20 04:39:40;;;;;;;16.80;10.93;;;;;;;7.17;100.00;100368.13;4834555;29;20075;-75
2023/04/20 04:42:05;;;;;;;17.40;10.70;;;;;;;7.18;100.00;100372.53;4866489;29;20067;-76
2023/04/20 04:44:32;;;;;;;16.23;10.10;;;;;;;7.16;100.00;100372.00;4834858;29;20046;-76
2023/04/20 04:46:57;;;;;;;15.05;9.48;;;;;;;7.14;100.00;100368.69;4846894;29;20077;-76
2023/04/20 04:49:26;;;;;;;17.02;9.85;;;;;;;7.07;100.00;100368.94;4841413;29;20514;-75
2023/04/20 04:51:51;;;;;;;14.13;9.38;;;;;;;7.06;100.00;100369.22;4831501;29;20030;-75
2023/04/20 04:54:17;;;;;;;14.63;9.93;;;;;;;7.05;100.00;100371.16;4846759;29;20075;-76
2023/04/20 04:56:42;;;;;;;15.57;10.07;;;;;;;6.97;100.00;100373.63;4846543;29;20041;-75
2023/04/20 04:59:07;;;;;;;16.58;10.15;;;;;;;6.92;100.00;100377.22;4834560;29;20101;-75
2023/04/20 05:01:33;;;;;;;12.85;9.00;;;;;;;6.93;100.00;100374.16;4848608;29;20033;-76
2023/04/20 05:03:59;;;;;;;17.55;10.10;;;;;;;6.90;100.00;100374.72;4847468;29;20046;-75
2023/04/20 05:06:25;;;;;;;18.00;9.32;;;;;;;6.89;100.00;100381.34;4831062;29;20045;-75
2023/04/20 05:08:50;;;;;;;15.80;9.93;;;;;;;6.83;100.00;100376.09;4831057;29;20038;-75
2023/04/20 05:11:16;;;;;;;14.07;9.30;;;;;;;6.81;100.00;100392.91;4831063;29;20038;-76
2023/04/20 05:13:41;;;;;;;17.65;9.85;;;;;;;6.74;100.00;100397.84;4831191;29;20052;-75
2023/04/20 05:16:07;;;;;;;13.20;8.98;;;;;;;6.80;100.00;100407.81;4819112;29;20045;-76
2023/04/20 05:18:32;;;;;;;13.25;8.18;;;;;;;6.81;100.00;100403.97;4815694;29;20049;-75
2023/04/20 05:20:58;;;;;;;11.50;8.65;;;;;;;6.77;100.00;100410.28;4845933;29;20042;-75
2023/04/20 05:23:24;;;;;;;16.05;9.00;;;;;;;6.76;100.00;100405.88;4831005;29;20530;-76
2023/04/20 05:25:49;;;;;;;15.45;9.50;;;;;;;6.70;100.00;100413.31;4851415;29;20036;-76
2023/04/20 05:28:15;;;;;;;13.60;9.73;;;;;;;6.67;100.00;100408.34;4846133;29;20053;-75
2023/04/20 05:30:40;;;;;;;14.23;8.68;;;;;;;6.75;100.00;100402.28;4846014;29;20046;-75
2023/04/20 05:33:06;;;;;;;14.82;8.55;;;;;;;6.77;100.00;100411.13;4845890;29;20041;-75
2023/04/20 05:35:31;;;;;;;15.85;8.65;;;;;;;6.82;100.00;100410.28;4830680;29;20058;-75
2023/04/20 05:37:59;;;;;;;13.40;8.10;;;;;;;6.81;100.00;100409.47;4818790;29;20053;-75
2023/04/20 05:40:25;;;;;;;13.57;8.88;;;;;;;6.86;100.00;100417.78;4865443;29;20182;-75
2023/04/20 05:42:50;;;;;;;14.82;9.27;;;;;;;6.89;100.00;100413.66;4830651;29;20046;-75
2023/04/20 05:45:16;;;;;;;15.90;8.80;;;;;;;6.88;100.00;100417.50;4851029;29;20037;-75
2023/04/20 05:47:41;;;;;;;14.45;9.02;;;;;;;6.96;100.00;100418.91;4851359;29;20120;-76
2023/04/20 05:50:07;;;;;;;14.18;8.68;;;;;;;7.02;100.00;100415.91;4855995;29;20563;-75
2023/04/20 05:52:33;;;;;;;15.30;8.95;;;;;;;7.12;100.00;100418.66;4845801;29;20038;-76
2023/04/20 05:54:58;;;;;;;14.23;8.10;;;;;;;7.23;100.00;100415.91;4848762;29;20053;-76
2023/04/20 05:57:24;;;;;;;15.30;8.77;;;;;;;7.29;100.00;100415.63;4833450;29;20053;-75
2023/04/20 05:59:50;;;;;;;13.55;8.40;;;;;;;7.42;100.00;100413.47;4830390;29;20034;-75
2023/04/20 06:02:15;;;;;;;12.40;7.80;;;;;;;7.56;100.00;100422.84;4845398;29;20045;-76
2023/04/20 06:04:41;;;;;;;14.27;7.97;;;;;;;7.70;100.00;100423.97;4830118;29;20041;-76
2023/04/20 06:07:06;;;;;;;15.85;9.13;;;;;;;7.82;100.00;100424.50;4845416;29;20099;-76
2023/04/20 06:09:32;;;;;;;13.48;7.68;;;;;;;7.95;100.00;100433.34;4830183;29;20038;-76
2023/04/20 06:11:59;;;;;;;11.73;7.75;;;;;;;8.09;100.00;100428.88;4815109;29;20034;-75
2023/04/20 06:14:24;;;;;;;12.82;7.55;;;;;;;8.27;100.00;100421.91;4845137;29;20041;-75
2023/04/20 06:16:50;;;;;;;10.45;7.60;;;;;;;8.42;100.00;100421.91;4830049;29;20411;-75
2023/04/20 06:19:15;;;;;;;13.07;7.38;;;;;;;8.55;100.00;100417.72;4829774;29;20034;-76
2023/04/20 06:21:41;;;;;;;11.10;7.13;;;;;;;8.68;100.00;100419.06;4848310;29;20046;-76
2023/04/20 06:24:06;;;;;;;13.43;7.00;;;;;;;8.76;100.00;100414.88;4834071;29;20468;-76
2023/04/20 06:26:32;;;;;;;11.35;7.32;;;;;;;8.86;100.00;100420.34;4849086;29;20084;-75
2023/04/20 06:28:57;;;;;;;10.02;6.93;;;;;;;8.96;100.00;100420.28;4833983;29;20042;-75
2023/04/20 06:31:23;;;;;;;13.27;7.55;;;;;;;9.01;100.00;100416.69;4833920;29;20045;-75
2023/04/20 06:33:48;;;;;;;13.88;7.55;;;;;;;9.08;98.73;100418.03;4850733;29;20503;-76
2023/04/20 06:36:14;;;;;;;11.98;7.25;;;;;;;9.21;98.78;100410.16;4835807;29;20065;-75
2023/04/20 06:38:39;;;;;;;10.85;7.20;;;;;;;9.27;98.27;100417.34;4833352;29;20049;-75
2023/04/20 06:41:05;;;;;;;10.07;6.95;;;;;;;9.41;100.00;100421.09;4818604;29;20491;-76
2023/04/20 06:43:30;;;;;;;11.95;7.30;;;;;;;9.49;97.48;100417.72;4851699;29;20094;-76
2023/04/20 06:45:56;;;;;;;12.00;6.93;;;;;;;9.58;93.70;100418.78;4808656;29;20068;-75
2023/04/20 06:48:21;;;;;;;10.75;6.82;;;;;;;9.69;97.17;100413.13;4866284;29;20041;-75
2023/04/20 06:50:48;;;;;;;11.60;6.88;;;;;;;9.81;97.28;100417.19;4838945;29;20557;-76
2023/04/20 06:53:14;;;;;;;13.45;6.78;;;;;;;9.87;96.54;100417.16;4851197;29;20124;-75
2023/04/20 06:55:39;;;;;;;15.68;7.75;;;;;;;9.99;94.05;100415.63;4844559;29;20077;-75
2023/04/20 06:58:05;;;;;;;10.00;6.85;;;;;;;10.15;98.15;100419.06;4829641;29;20399;-76
2023/04/20 07:00:30;;;;;;;11.43;6.47;;;;;;;10.22;90.39;100418.72;4844718;29;20041;-76
2023/04/20 07:02:56;;;;;;;12.93;7.35;;;;;;;10.22;87.10;100416.78;4829306;29;20050;-76
2023/04/20 07:05:21;;;;;;;11.00;6.88;;;;;;;10.37;86.52;100426.91;4843492;29;20038;-76
2023/04/20 07:07:47;;;;;;;12.25;6.93;;;;;;;10.40;85.09;100426.31;4844442;29;20061;-75
2023/04/20 07:10:13;;;;;;;10.13;7.13;;;;;;;10.49;86.97;100420.94;4829226;29;20062;-75
2023/04/20 07:12:39;;;;;;;10.30;7.22;;;;;;;10.51;81.77;100413.16;4844726;29;20495;-75
2023/04/20 07:15:05;;;;;;;11.02;7.15;;;;;;;10.58;83.96;100412.78;4829144;29;20069;-76
2023/04/20 07:17:31;;;;;;;14.40;7.72;;;;;;;10.72;82.24;100422.88;4829707;29;20042;-75
2023/04/20 07:19:57;;;;;;;11.02;7.20;;;;;;;10.74;80.79;100417.03;4828927;29;20034;-75
2023/04/20 07:22:23;;;;;;;9.10;6.70;;;;;;;10.80;79.40;100413.06;4829581;29;20050;-75
2023/04/20 07:24:49;;;;;;;10.57;7.57;;;;;;;10.82;79.65;100408.03;4829236;29;20121;-76
2023/04/20 07:27:14;;;;;;;11.27;7.25;;;;;;;10.82;82.24;100410.81;4832341;29;20052;-75
2023/04/20 07:29:40;;;;;;;10.35;7.05;;;;;;;10.76;79.99;100414.78;4816504;29;20054;-75
2023/04/20 07:32:05;;;;;;;12.40;7.35;;;;;;;10.90;79.58;100412.94;4847034;29;20048;-75
2023/04/20 07:34:31;;;;;;;14.43;7.50;;;;;;;10.89;78.77;100413.22;4831803;29;20041;-76
2023/04/20 07:36:56;;;;;;;16.30;7.55;;;;;;;10.97;76.82;100415.31;4831933;29;20057;-76
2023/04/20 07:39:24;;;;;;;12.52;7.50;;;;;;;11.02;78.84;100415.25;4844073;29;20056;-76
2023/04/20 07:41:49;;;;;;;13.50;7.55;;;;;;;11.03;80.63;100416.09;4844004;29;20098;-76
2023/04/20 07:44:15;;;;;;;12.23;7.28;;;;;;;11.06;80.74;100427.44;4847375;29;20050;-76
2023/04/20 07:46:40;;;;;;;11.90;7.18;;;;;;;11.11;78.42;100419.00;4831202;29;20037;-76
2023/04/20 07:49:06;;;;;;;14.18;7.28;;;;;;;11.20;78.43;100416.41;4837880;29;20086;-76
2023/04/20 07:51:33;;;;;;;12.27;6.75;;;;;;;11.30;80.81;100402.34;4817141;29;20053;-76
2023/04/20 07:53:59;;;;;;;14.65;7.70;;;;;;;11.35;81.41;100402.25;4801891;29;20037;-75
2023/04/20 07:56:25;;;;;;;13.38;7.15;;;;;;;11.50;81.02;100403.16;4847136;29;20124;-76
2023/04/20 07:58:50;;;;;;;11.85;7.72;;;;;;;11.57;81.89;100403.59;4828786;29;20488;-75
2023/04/20 08:01:16;;;;;;;11.32;7.53;;;;;;;11.65;79.36;100396.53;4829011;29;20057;-76
2023/04/20 08:03:41;;;;;;;13.10;7.13;;;;;;;11.69;80.97;100406.72;4846774;29;20098;-76
2023/04/20 08:06:08;;;;;;;10.10;6.72;;;;;;;11.89;80.64;100410.31;4843974;29;20042;-76
2023/04/20 08:08:34;;;;;;;17.30;7.03;;;;;;;11.98;75.85;100402.91;4828604;29;20153;-76
2023/04/20 08:11:00;;;;;;;12.13;6.95;;;;;;;12.08;76.70;100411.91;4845010;29;20049;-76
2023/04/20 08:13:26;;;;;;;10.18;6.70;;;;;;;12.18;76.85;100410.91;4847445;29;20038;-76
2023/04/20 08:15:51;;;;;;;11.68;6.95;;;;;;;12.30;76.06;100411.22;4847372;29;20048;-76
2023/04/20 08:18:17;;;;;;;13.38;7.22;;;;;;;12.45;75.91;100412.03;4846943;29;20050;-76
2023/04/20 08:20:44;;;;;;;11.25;6.72;;;;;;;12.57;71.27;100412.38;4815759;29;20053;-76
2023/04/20 08:23:10;;;;;;;11.18;6.75;;;;;;;12.77;71.47;100408.31;4839029;29;20111;-76
2023/04/20 08:25:39;;;;;;;9.43;7.13;;;;;;;12.83;70.81;100415.44;4848695;29;20041;-76
2023/04/20 08:28:05;;;;;;;13.25;6.57;;;;;;;12.89;74.10;100413.38;4823233;29;20528;-76
2023/04/20 08:30:30;;;;;;;8.57;5.97;;;;;;;12.97;72.06;100413.44;4834752;29;20086;-76
2023/04/20 08:32:57;;;;;;;9.93;6.53;;;;;;;13.05;70.03;100420.25;4831673;29;20121;-75
2023/04/20 08:35:22;;;;;;;11.07;6.45;;;;;;;13.25;69.45;100418.97;4846762;29;20046;-76
2023/04/20 08:37:48;;;;;;;9.65;5.90;;;;;;;13.39;68.75;100419.78;4831432;29;20109;-76
2023/04/20 08:40:15;;;;;;;18.70;6.40;;;;;;;13.49;68.46;100418.72;4831629;29;20050;-76
2023/04/20 08:42:40;;;;;;;10.68;6.32;;;;;;;13.72;66.19;100413.16;4831583;29;20483;-77
2023/04/20 08:45:06;;;;;;;10.40;6.78;;;;;;;13.74;65.46;100422.84;4850534;29;20118;-76
2023/04/20 08:47:33;;;;;;;10.52;6.15;;;;;;;13.89;66.11;100421.63;4850669;29;20049;-76
2023/04/20 08:49:58;;;;;;;13.48;6.93;;;;;;;13.97;66.76;100420.84;4818137;29;20046;-76
2023/04/20 08:52:24;;;;;;;11.95;6.47;;;;;;;13.99;63.90;100413.00;4847580;29;20036;-76
2023/04/20 08:54:49;;;;;;;8.85;6.60;;;;;;;14.11;64.21;100420.78;4819575;29;20038;-77
2023/04/20 08:57:15;;;;;;;12.80;6.68;;;;;;;14.15;65.22;100413.41;4862356;29;20099;-76
2023/04/20 08:59:41;;;;;;;11.48;6.30;;;;;;;14.37;65.00;100415.31;4846640;29;20042;-76
2023/04/20 09:02:08;;;;;;;10.30;6.72;;;;;;;14.39;66.49;100407.44;4816361;29;20042;-76
2023/04/20 09:04:34;;;;;;;11.70;6.68;;;;;;;14.40;64.44;100416.63;4846476;29;20049;-76
2023/04/20 09:07:01;;;;;;;9.00;6.78;;;;;;;14.42;64.51;100412.38;4816063;29;20049;-76
2023/04/20 09:09:26;;;;;;;10.20;6.57;;;;;;;14.55;63.88;100415.44;4856894;29;20048;-77
2023/04/20 09:12:02;;;;;;;10.50;6.72;;;;;;;14.38;62.56;100416.97;4830859;29;20042;-77
2023/04/20 09:14:27;;;;;;;10.27;6.18;;;;;;;14.56;63.28;100419.88;4830714;29;20141;-77
2023/04/20 09:17:00;;;;;;;9.80;6.30;;;;;;;14.70;62.04;100424.19;4815781;29;20539;-77
2023/04/20 09:19:28;;;;;;;9.98;6.28;;;;;;;14.61;60.31;100417.75;4831438;29;20080;-77
2023/04/20 09:21:54;;;;;;;10.48;6.25;;;;;;;14.53;60.19;100408.19;4830050;29;20162;-77
2023/04/20 09:24:20;;;;;;;9.02;5.88;;;;;;;14.77;61.97;100411.72;4830054;29;20054;-77
2023/04/20 09:26:46;;;;;;;9.00;6.28;;;;;;;14.91;61.80;100418.81;4821209;29;20109;-77
2023/04/20 09:29:20;;;;;;;9.73;6.05;;;;;;;15.05;61.15;100420.66;4847813;29;20038;-77
2023/04/20 09:31:46;;;;;;;10.32;5.63;;;;;;;15.13;61.11;100414.28;4846064;29;20050;-77
2023/04/20 09:34:12;;;;;;;10.13;5.63;;;;;;;15.24;62.42;100415.59;4830484;29;20053;-77
2023/04/20 09:36:39;;;;;;;9.45;5.75;;;;;;;15.41;62.20;100409.19;4833254;29;20494;-77
2023/04/20 09:39:08;;;;;;;12.45;5.93;;;;;;;15.30;61.27;100413.47;4830710;29;20900;-77
2023/04/20 09:41:34;;;;;;;9.93;5.97;;;;;;;15.36;59.74;100407.38;4847701;29;20395;-77
2023/04/20 09:44:00;;;;;;;9.02;5.57;;;;;;;15.42;61.57;100411.63;4835807;29;20041;-77
2023/04/20 09:46:27;;;;;;;9.75;6.32;;;;;;;15.34;60.39;100411.63;4830663;29;20056;-77
2023/04/20 09:48:52;;;;;;;12.13;6.15;;;;;;;15.32;59.59;100405.53;4841475;29;20125;-77
2023/04/20 09:51:18;;;;;;;9.18;5.95;;;;;;;15.45;60.55;100410.16;4845617;29;20042;-77
2023/04/20 09:53:44;;;;;;;11.07;6.20;;;;;;;15.55;61.26;100407.03;4845468;29;20404;-77
2023/04/20 09:56:10;;;;;;;12.50;6.15;;;;;;;15.47;59.50;100407.03;4830425;29;20403;-78
2023/04/20 09:58:35;;;;;;;9.82;5.95;;;;;;;15.65;59.65;100403.06;4830511;29;20038;-77
2023/04/20 10:01:01;;;;;;;9.18;5.88;;;;;;;15.69;60.65;100389.28;4845228;29;20038;-77
2023/04/20 10:03:27;;;;;;;6.57;5.47;;;;;;;15.89;58.27;100393.34;4814915;29;20041;-78
2023/04/20 10:05:54;;;;;;;10.13;6.28;;;;;;;15.81;59.14;100395.84;4833085;29;20403;-77
2023/04/20 10:08:20;;;;;;;7.60;5.88;;;;;;;15.76;57.88;100396.00;4836715;29;20104;-77
2023/04/20 10:10:47;;;;;;;12.10;6.53;;;;;;;15.76;56.09;100390.41;4814810;29;20452;-77
2023/04/20 10:13:13;;;;;;;12.45;5.95;;;;;;;15.89;57.72;100391.38;4830136;29;20034;-77
2023/04/20 10:15:40;;;;;;;10.35;5.65;;;;;;;15.88;57.12;100394.50;4829186;29;20060;-77
2023/04/20 10:18:16;;;;;;;8.38;5.80;;;;;;;15.81;55.92;100406.22;4844649;29;20053;-78
2023/04/20 10:20:41;;;;;;;9.73;5.47;;;;;;;15.80;56.46;100394.19;4844982;29;20474;-77
2023/04/20 10:23:09;;;;;;;9.88;5.78;;;;;;;15.84;56.35;100402.75;4831740;29;20049;-77
2023/04/20 10:25:35;;;;;;;8.88;5.90;;;;;;;15.83;55.40;100393.53;4815262;29;20562;-77
2023/04/20 10:28:04;;;;;;;10.35;5.65;;;;;;;15.87;57.13;100399.28;4832719;29;20042;-77
2023/04/20 10:30:30;;;;;;;10.73;5.97;;;;;;;15.83;55.55;100396.31;4832011;29;20042;-77
2023/04/20 10:33:11;;;;;;;8.05;5.95;;;;;;;15.83;55.82;100387.94;4831699;29;20063;-78
2023/04/20 10:35:50;;;;;;;7.57;5.55;;;;;;;15.80;55.56;100387.78;4818233;29;20137;-77
2023/04/20 10:38:32;;;;;;;8.23;5.68;;;;;;;15.82;55.76;100388.25;4841949;29;20076;-78
2023/04/20 10:41:07;;;;;;;8.68;5.18;;;;;;;15.90;56.92;100393.00;4827314;29;20051;-77
2023/04/20 10:43:34;;;;;;;8.70;5.68;;;;;;;16.04;56.54;100387.22;4834053;29;20045;-77
2023/04/20 10:45:59;;;;;;;7.28;5.05;;;;;;;15.98;52.13;100389.38;4845856;29;20049;-78
2023/04/20 10:48:25;;;;;;;8.90;5.43;;;;;;;15.96;54.46;100390.84;4836668;29;20037;-77
2023/04/20 10:50:50;;;;;;;9.77;5.55;;;;;;;16.01;54.02;100379.47;4852205;29;20038;-77
2023/04/20 10:53:18;;;;;;;12.80;5.65;;;;;;;15.98;53.79;100377.34;4830911;29;20072;-77
2023/04/20 10:55:43;;;;;;;8.98;5.20;;;;;;;15.98;52.60;100382.94;4831987;29;20034;-78
2023/04/20 10:58:20;;;;;;;13.63;5.63;;;;;;;16.12;53.24;100369.56;4847277;29;20044;-78
2023/04/20 11:00:45;;;;;;;8.13;4.85;;;;;;;16.24;54.04;100361.28;4824676;29;20109;-77
2023/04/20 11:03:10;;;;;;;7.75;5.18;;;;;;;16.38;53.88;100363.03;4835981;29;20072;-78
2023/04/20 11:05:36;;;;;;;8.18;5.03;;;;;;;16.42;51.60;100359.22;4848455;29;20053;-78
2023/04/20 11:08:02;;;;;;;9.02;5.53;;;;;;;16.42;51.44;100366.81;4833420;29;20045;-78
2023/04/20 11:10:40;;;;;;;7.65;4.93;;;;;;;16.36;50.63;100363.38;4848441;29;20094;-77